sensor_id;sensor_type;location;lat;lon;timestamp;P1;durP1;ratioP1;P2;durP2;ratioP2
12181;SDS011;6154;51.550;12.138;2024-01-30T00:02:30;7.12;;;3.00;;
12181;SDS011;6154;51.550;12.138;2024-01-30T00:04:58;5.87;;;3.37;;
12181;SDS011;6154;51.550;12.138;2024-01-30T00:07:26;6.10;;;3.47;;
12181;SDS011;6154;51.550;12.138;2024-01-30T00:09:54;4.95;;;2.83;;
12181;SDS011;6154;51.550;12.138;2024-01-30T00:12:24;3.85;;;3.30;;
12181;SDS011;6154;51.550;12.138;2024-01-30T00:14:53;4.75;;;2.40;;
12181;SDS011;6154;51.550;12.138;2024-01-30T00:17:21;4.10;;;2.72;;
12181;SDS011;6154;51.550;12.138;2024-01-30T00:19:49;5.75;;;3.17;;
12181;SDS011;6154;51.550;12.138;2024-01-30T00:22:17;6.18;;;3.30;;
12181;SDS011;6154;51.550;12.138;2024-01-30T00:24:45;10.82;;;3.75;;
12181;SDS011;6154;51.550;12.138;2024-01-30T00:27:13;9.00;;;2.95;;
12181;SDS011;6154;51.550;12.138;2024-01-30T00:29:43;6.47;;;3.33;;
12181;SDS011;6154;51.550;12.138;2024-01-30T00:32:11;4.87;;;2.62;;
12181;SDS011;6154;51.550;12.138;2024-01-30T00:34:39;7.50;;;3.05;;
12181;SDS011;6154;51.550;12.138;2024-01-30T00:37:07;5.30;;;2.97;;
12181;SDS011;6154;51.550;12.138;2024-01-30T00:39:35;4.45;;;2.60;;
12181;SDS011;6154;51.550;12.138;2024-01-30T00:42:03;6.90;;;3.35;;
12181;SDS011;6154;51.550;12.138;2024-01-30T00:44:34;5.57;;;3.00;;
12181;SDS011;6154;51.550;12.138;2024-01-30T00:47:04;4.87;;;3.17;;
12181;SDS011;6154;51.550;12.138;2024-01-30T00:49:32;9.35;;;3.55;;
12181;SDS011;6154;51.550;12.138;2024-01-30T00:52:00;6.57;;;3.22;;
12181;SDS011;6154;51.550;12.138;2024-01-30T00:54:28;5.93;;;3.42;;
12181;SDS011;6154;51.550;12.138;2024-01-30T00:56:56;3.70;;;2.60;;
12181;SDS011;6154;51.550;12.138;2024-01-30T00:59:24;4.62;;;3.15;;
12181;SDS011;6154;51.550;12.138;2024-01-30T01:01:52;4.20;;;2.80;;
12181;SDS011;6154;51.550;12.138;2024-01-30T01:04:22;4.45;;;2.58;;
12181;SDS011;6154;51.550;12.138;2024-01-30T01:06:51;4.68;;;2.65;;
12181;SDS011;6154;51.550;12.138;2024-01-30T01:09:29;4.35;;;2.60;;
12181;SDS011;6154;51.550;12.138;2024-01-30T01:11:58;4.05;;;2.58;;
12181;SDS011;6154;51.550;12.138;2024-01-30T01:14:31;3.90;;;2.00;;
12181;SDS011;6154;51.550;12.138;2024-01-30T01:17:00;3.78;;;2.67;;
12181;SDS011;6154;51.550;12.138;2024-01-30T01:19:30;9.77;;;2.42;;
12181;SDS011;6154;51.550;12.138;2024-01-30T01:22:00;4.85;;;2.22;;
12181;SDS011;6154;51.550;12.138;2024-01-30T01:24:31;3.90;;;2.33;;
12181;SDS011;6154;51.550;12.138;2024-01-30T01:27:00;3.08;;;1.87;;
12181;SDS011;6154;51.550;12.138;2024-01-30T01:29:42;3.85;;;1.83;;
12181;SDS011;6154;51.550;12.138;2024-01-30T01:32:11;8.20;;;2.45;;
12181;SDS011;6154;51.550;12.138;2024-01-30T01:34:46;3.55;;;1.83;;
12181;SDS011;6154;51.550;12.138;2024-01-30T01:37:14;2.55;;;1.55;;
12181;SDS011;6154;51.550;12.138;2024-01-30T01:39:42;3.70;;;2.12;;
12181;SDS011;6154;51.550;12.138;2024-01-30T01:42:10;4.50;;;2.20;;
12181;SDS011;6154;51.550;12.138;2024-01-30T01:44:38;5.75;;;2.37;;
12181;SDS011;6154;51.550;12.138;2024-01-30T01:47:06;3.83;;;1.98;;
12181;SDS011;6154;51.550;12.138;2024-01-30T01:49:34;5.80;;;1.95;;
12181;SDS011;6154;51.550;12.138;2024-01-30T01:52:04;4.28;;;1.92;;
12181;SDS011;6154;51.550;12.138;2024-01-30T01:54:33;3.58;;;2.08;;
12181;SDS011;6154;51.550;12.138;2024-01-30T01:57:02;3.03;;;2.03;;
12181;SDS011;6154;51.550;12.138;2024-01-30T01:59:30;3.05;;;1.83;;
12181;SDS011;6154;51.550;12.138;2024-01-30T02:01:59;3.85;;;2.25;;
12181;SDS011;6154;51.550;12.138;2024-01-30T02:04:30;3.05;;;1.70;;
12181;SDS011;6154;51.550;12.138;2024-01-30T02:06:58;3.85;;;2.40;;
12181;SDS011;6154;51.550;12.138;2024-01-30T02:09:30;4.05;;;2.20;;
12181;SDS011;6154;51.550;12.138;2024-01-30T02:12:01;4.05;;;2.20;;
12181;SDS011;6154;51.550;12.138;2024-01-30T02:14:29;3.20;;;1.73;;
12181;SDS011;6154;51.550;12.138;2024-01-30T02:16:57;3.87;;;1.87;;
12181;SDS011;6154;51.550;12.138;2024-01-30T02:19:29;4.28;;;2.40;;
12181;SDS011;6154;51.550;12.138;2024-01-30T02:21:59;2.33;;;2.00;;
12181;SDS011;6154;51.550;12.138;2024-01-30T02:24:27;3.62;;;2.37;;
12181;SDS011;6154;51.550;12.138;2024-01-30T02:26:55;2.97;;;1.83;;
12181;SDS011;6154;51.550;12.138;2024-01-30T02:29:23;3.55;;;2.03;;
12181;SDS011;6154;51.550;12.138;2024-01-30T02:31:51;3.65;;;2.17;;
12181;SDS011;6154;51.550;12.138;2024-01-30T02:34:19;3.83;;;2.22;;
12181;SDS011;6154;51.550;12.138;2024-01-30T02:36:47;2.08;;;1.87;;
12181;SDS011;6154;51.550;12.138;2024-01-30T02:39:17;6.43;;;2.15;;
12181;SDS011;6154;51.550;12.138;2024-01-30T02:41:45;2.55;;;2.08;;
12181;SDS011;6154;51.550;12.138;2024-01-30T02:44:13;4.85;;;2.60;;
12181;SDS011;6154;51.550;12.138;2024-01-30T02:46:41;4.65;;;2.40;;
12181;SDS011;6154;51.550;12.138;2024-01-30T02:49:09;2.92;;;2.00;;
12181;SDS011;6154;51.550;12.138;2024-01-30T02:51:37;2.28;;;1.90;;
12181;SDS011;6154;51.550;12.138;2024-01-30T02:54:05;5.97;;;2.15;;
12181;SDS011;6154;51.550;12.138;2024-01-30T02:56:34;2.92;;;1.58;;
12181;SDS011;6154;51.550;12.138;2024-01-30T02:59:02;3.00;;;2.17;;
12181;SDS011;6154;51.550;12.138;2024-01-30T03:01:30;4.03;;;2.55;;
12181;SDS011;6154;51.550;12.138;2024-01-30T03:03:59;4.35;;;1.98;;
12181;SDS011;6154;51.550;12.138;2024-01-30T03:06:27;4.15;;;2.47;;
12181;SDS011;6154;51.550;12.138;2024-01-30T03:08:55;4.03;;;2.08;;
12181;SDS011;6154;51.550;12.138;2024-01-30T03:11:23;1.65;;;1.55;;
12181;SDS011;6154;51.550;12.138;2024-01-30T03:13:52;3.40;;;1.90;;
12181;SDS011;6154;51.550;12.138;2024-01-30T03:16:21;1.73;;;1.62;;
12181;SDS011;6154;51.550;12.138;2024-01-30T03:18:48;4.05;;;1.85;;
12181;SDS011;6154;51.550;12.138;2024-01-30T03:21:17;2.17;;;1.77;;
12181;SDS011;6154;51.550;12.138;2024-01-30T03:23:45;4.00;;;1.98;;
12181;SDS011;6154;51.550;12.138;2024-01-30T03:26:13;2.83;;;1.95;;
12181;SDS011;6154;51.550;12.138;2024-01-30T03:28:42;6.95;;;2.42;;
12181;SDS011;6154;51.550;12.138;2024-01-30T03:31:13;2.33;;;2.05;;
12181;SDS011;6154;51.550;12.138;2024-01-30T03:33:42;2.83;;;1.90;;
12181;SDS011;6154;51.550;12.138;2024-01-30T03:36:10;6.68;;;1.90;;
12181;SDS011;6154;51.550;12.138;2024-01-30T03:38:38;7.03;;;2.85;;
12181;SDS011;6154;51.550;12.138;2024-01-30T03:41:07;4.30;;;2.47;;
12181;SDS011;6154;51.550;12.138;2024-01-30T03:43:35;5.15;;;2.12;;
12181;SDS011;6154;51.550;12.138;2024-01-30T03:46:03;3.35;;;2.05;;
12181;SDS011;6154;51.550;12.138;2024-01-30T03:48:33;1.77;;;1.62;;
12181;SDS011;6154;51.550;12.138;2024-01-30T03:51:01;3.95;;;2.53;;
12181;SDS011;6154;51.550;12.138;2024-01-30T03:53:29;5.18;;;2.00;;
12181;SDS011;6154;51.550;12.138;2024-01-30T03:55:57;1.85;;;1.70;;
12181;SDS011;6154;51.550;12.138;2024-01-30T03:58:25;3.42;;;2.10;;
12181;SDS011;6154;51.550;12.138;2024-01-30T04:00:54;2.40;;;2.20;;
12181;SDS011;6154;51.550;12.138;2024-01-30T04:03:22;2.33;;;1.50;;
12181;SDS011;6154;51.550;12.138;2024-01-30T04:05:51;3.75;;;2.25;;
12181;SDS011;6154;51.550;12.138;2024-01-30T04:08:20;4.05;;;1.92;;
12181;SDS011;6154;51.550;12.138;2024-01-30T04:10:48;3.45;;;2.35;;
12181;SDS011;6154;51.550;12.138;2024-01-30T04:13:16;4.03;;;2.22;;
12181;SDS011;6154;51.550;12.138;2024-01-30T04:15:44;2.60;;;1.87;;
12181;SDS011;6154;51.550;12.138;2024-01-30T04:18:12;4.72;;;1.77;;
12181;SDS011;6154;51.550;12.138;2024-01-30T04:20:40;3.97;;;2.40;;
12181;SDS011;6154;51.550;12.138;2024-01-30T04:23:10;6.85;;;2.25;;
12181;SDS011;6154;51.550;12.138;2024-01-30T04:25:38;9.05;;;2.35;;
12181;SDS011;6154;51.550;12.138;2024-01-30T04:28:05;3.12;;;1.95;;
12181;SDS011;6154;51.550;12.138;2024-01-30T04:30:33;7.37;;;2.28;;
12181;SDS011;6154;51.550;12.138;2024-01-30T04:33:02;4.62;;;2.28;;
12181;SDS011;6154;51.550;12.138;2024-01-30T04:35:30;4.28;;;2.22;;
12181;SDS011;6154;51.550;12.138;2024-01-30T04:37:58;3.37;;;1.70;;
12181;SDS011;6154;51.550;12.138;2024-01-30T04:40:28;3.97;;;2.03;;
12181;SDS011;6154;51.550;12.138;2024-01-30T04:42:56;3.40;;;1.90;;
12181;SDS011;6154;51.550;12.138;2024-01-30T04:45:24;3.28;;;1.95;;
12181;SDS011;6154;51.550;12.138;2024-01-30T04:47:53;2.47;;;1.65;;
12181;SDS011;6154;51.550;12.138;2024-01-30T04:50:21;2.40;;;1.70;;
12181;SDS011;6154;51.550;12.138;2024-01-30T04:52:49;5.00;;;1.85;;
12181;SDS011;6154;51.550;12.138;2024-01-30T04:55:21;2.47;;;1.52;;
12181;SDS011;6154;51.550;12.138;2024-01-30T04:58:19;3.30;;;2.20;;
12181;SDS011;6154;51.550;12.138;2024-01-30T05:00:50;1.85;;;1.60;;
12181;SDS011;6154;51.550;12.138;2024-01-30T05:03:26;3.05;;;2.05;;
12181;SDS011;6154;51.550;12.138;2024-01-30T05:05:55;3.03;;;1.85;;
12181;SDS011;6154;51.550;12.138;2024-01-30T05:08:26;5.20;;;1.73;;
12181;SDS011;6154;51.550;12.138;2024-01-30T05:10:54;3.05;;;1.87;;
12181;SDS011;6154;51.550;12.138;2024-01-30T05:13:23;4.57;;;2.05;;
12181;SDS011;6154;51.550;12.138;2024-01-30T05:15:51;1.70;;;1.23;;
12181;SDS011;6154;51.550;12.138;2024-01-30T05:18:20;2.92;;;1.98;;
12181;SDS011;6154;51.550;12.138;2024-01-30T05:20:49;3.28;;;1.83;;
12181;SDS011;6154;51.550;12.138;2024-01-30T05:23:17;3.33;;;1.95;;
12181;SDS011;6154;51.550;12.138;2024-01-30T05:25:45;5.07;;;1.83;;
12181;SDS011;6154;51.550;12.138;2024-01-30T05:28:13;2.22;;;2.00;;
12181;SDS011;6154;51.550;12.138;2024-01-30T05:30:43;3.37;;;2.20;;
12181;SDS011;6154;51.550;12.138;2024-01-30T05:33:11;3.05;;;1.58;;
12181;SDS011;6154;51.550;12.138;2024-01-30T05:35:40;1.98;;;1.35;;
12181;SDS011;6154;51.550;12.138;2024-01-30T05:38:08;3.37;;;1.85;;
12181;SDS011;6154;51.550;12.138;2024-01-30T05:40:36;3.55;;;1.87;;
12181;SDS011;6154;51.550;12.138;2024-01-30T05:43:04;3.45;;;1.50;;
12181;SDS011;6154;51.550;12.138;2024-01-30T05:45:32;3.17;;;1.45;;
12181;SDS011;6154;51.550;12.138;2024-01-30T05:48:03;2.83;;;1.60;;
12181;SDS011;6154;51.550;12.138;2024-01-30T05:50:32;2.67;;;2.10;;
12181;SDS011;6154;51.550;12.138;2024-01-30T05:53:00;5.40;;;2.45;;
12181;SDS011;6154;51.550;12.138;2024-01-30T05:55:28;6.25;;;1.87;;
12181;SDS011;6154;51.550;12.138;2024-01-30T05:57:56;2.83;;;1.40;;
12181;SDS011;6154;51.550;12.138;2024-01-30T06:00:24;2.55;;;1.73;;
12181;SDS011;6154;51.550;12.138;2024-01-30T06:02:52;2.40;;;1.70;;
12181;SDS011;6154;51.550;12.138;2024-01-30T06:05:21;3.65;;;2.17;;
12181;SDS011;6154;51.550;12.138;2024-01-30T06:07:49;3.62;;;1.90;;
12181;SDS011;6154;51.550;12.138;2024-01-30T06:10:17;3.25;;;2.00;;
12181;SDS011;6154;51.550;12.138;2024-01-30T06:12:45;2.75;;;2.50;;
12181;SDS011;6154;51.550;12.138;2024-01-30T06:15:14;3.12;;;1.60;;
12181;SDS011;6154;51.550;12.138;2024-01-30T06:17:43;2.80;;;2.33;;
12181;SDS011;6154;51.550;12.138;2024-01-30T06:20:11;3.75;;;2.00;;
12181;SDS011;6154;51.550;12.138;2024-01-30T06:22:40;1.75;;;1.65;;
12181;SDS011;6154;51.550;12.138;2024-01-30T06:25:09;6.03;;;1.70;;
12181;SDS011;6154;51.550;12.138;2024-01-30T06:27:39;2.35;;;1.50;;
12181;SDS011;6154;51.550;12.138;2024-01-30T06:30:07;2.83;;;1.85;;
12181;SDS011;6154;51.550;12.138;2024-01-30T06:32:35;5.95;;;2.33;;
12181;SDS011;6154;51.550;12.138;2024-01-30T06:35:04;4.53;;;2.05;;
12181;SDS011;6154;51.550;12.138;2024-01-30T06:37:33;3.55;;;1.83;;
12181;SDS011;6154;51.550;12.138;2024-01-30T06:40:02;2.40;;;2.10;;
12181;SDS011;6154;51.550;12.138;2024-01-30T06:42:31;4.05;;;1.92;;
12181;SDS011;6154;51.550;12.138;2024-01-30T06:44:59;2.33;;;2.10;;
12181;SDS011;6154;51.550;12.138;2024-01-30T06:47:29;4.18;;;1.87;;
12181;SDS011;6154;51.550;12.138;2024-01-30T06:49:57;3.97;;;1.90;;
12181;SDS011;6154;51.550;12.138;2024-01-30T06:52:25;3.53;;;1.92;;
12181;SDS011;6154;51.550;12.138;2024-01-30T06:54:54;3.00;;;2.40;;
12181;SDS011;6154;51.550;12.138;2024-01-30T06:57:23;5.50;;;2.33;;
12181;SDS011;6154;51.550;12.138;2024-01-30T06:59:51;4.25;;;1.75;;
12181;SDS011;6154;51.550;12.138;2024-01-30T07:02:19;2.35;;;2.10;;
12181;SDS011;6154;51.550;12.138;2024-01-30T07:04:47;5.62;;;2.17;;
12181;SDS011;6154;51.550;12.138;2024-01-30T07:07:16;3.67;;;2.12;;
12181;SDS011;6154;51.550;12.138;2024-01-30T07:09:44;2.67;;;1.65;;
12181;SDS011;6154;51.550;12.138;2024-01-30T07:12:14;4.62;;;2.00;;
12181;SDS011;6154;51.550;12.138;2024-01-30T07:14:43;4.03;;;2.10;;
12181;SDS011;6154;51.550;12.138;2024-01-30T07:17:11;3.78;;;1.75;;
12181;SDS011;6154;51.550;12.138;2024-01-30T07:19:39;2.00;;;1.48;;
12181;SDS011;6154;51.550;12.138;2024-01-30T07:22:07;2.65;;;1.75;;
12181;SDS011;6154;51.550;12.138;2024-01-30T07:24:36;3.47;;;2.00;;
12181;SDS011;6154;51.550;12.138;2024-01-30T07:27:04;2.35;;;1.77;;
12181;SDS011;6154;51.550;12.138;2024-01-30T07:29:32;3.83;;;2.10;;
12181;SDS011;6154;51.550;12.138;2024-01-30T07:32:01;3.72;;;1.92;;
12181;SDS011;6154;51.550;12.138;2024-01-30T07:34:30;3.97;;;2.33;;
12181;SDS011;6154;51.550;12.138;2024-01-30T07:37:05;2.20;;;1.37;;
12181;SDS011;6154;51.550;12.138;2024-01-30T07:39:35;3.50;;;1.52;;
12181;SDS011;6154;51.550;12.138;2024-01-30T07:42:03;5.03;;;2.47;;
12181;SDS011;6154;51.550;12.138;2024-01-30T07:44:34;3.55;;;1.60;;
12181;SDS011;6154;51.550;12.138;2024-01-30T07:47:04;1.95;;;1.60;;
12181;SDS011;6154;51.550;12.138;2024-01-30T07:49:33;3.45;;;2.08;;
12181;SDS011;6154;51.550;12.138;2024-01-30T07:52:01;3.80;;;1.83;;
12181;SDS011;6154;51.550;12.138;2024-01-30T07:54:29;2.33;;;1.65;;
12181;SDS011;6154;51.550;12.138;2024-01-30T07:57:00;6.05;;;1.90;;
12181;SDS011;6154;51.550;12.138;2024-01-30T07:59:28;2.87;;;2.22;;
12181;SDS011;6154;51.550;12.138;2024-01-30T08:01:56;5.28;;;2.17;;
12181;SDS011;6154;51.550;12.138;2024-01-30T08:04:25;5.07;;;2.47;;
12181;SDS011;6154;51.550;12.138;2024-01-30T08:06:54;4.80;;;2.35;;
12181;SDS011;6154;51.550;12.138;2024-01-30T08:09:22;2.78;;;1.83;;
12181;SDS011;6154;51.550;12.138;2024-01-30T08:11:50;2.90;;;2.40;;
12181;SDS011;6154;51.550;12.138;2024-01-30T08:14:18;3.03;;;1.85;;
12181;SDS011;6154;51.550;12.138;2024-01-30T08:16:46;4.60;;;2.47;;
12181;SDS011;6154;51.550;12.138;2024-01-30T08:19:14;6.22;;;2.92;;
12181;SDS011;6154;51.550;12.138;2024-01-30T08:21:43;6.30;;;2.70;;
12181;SDS011;6154;51.550;12.138;2024-01-30T08:24:11;4.32;;;2.08;;
12181;SDS011;6154;51.550;12.138;2024-01-30T08:26:39;4.45;;;2.80;;
12181;SDS011;6154;51.550;12.138;2024-01-30T08:29:07;5.35;;;3.25;;
12181;SDS011;6154;51.550;12.138;2024-01-30T08:31:36;4.50;;;2.70;;
12181;SDS011;6154;51.550;12.138;2024-01-30T08:34:04;7.55;;;3.12;;
12181;SDS011;6154;51.550;12.138;2024-01-30T08:36:32;4.28;;;2.97;;
12181;SDS011;6154;51.550;12.138;2024-01-30T08:39:01;6.60;;;3.28;;
12181;SDS011;6154;51.550;12.138;2024-01-30T08:41:32;4.47;;;2.65;;
12181;SDS011;6154;51.550;12.138;2024-01-30T08:44:00;5.32;;;2.83;;
12181;SDS011;6154;51.550;12.138;2024-01-30T08:46:28;4.93;;;3.22;;
12181;SDS011;6154;51.550;12.138;2024-01-30T08:48:57;4.18;;;2.22;;
12181;SDS011;6154;51.550;12.138;2024-01-30T08:51:25;4.53;;;2.92;;
12181;SDS011;6154;51.550;12.138;2024-01-30T08:53:53;3.45;;;2.62;;
12181;SDS011;6154;51.550;12.138;2024-01-30T08:56:22;4.37;;;2.62;;
12181;SDS011;6154;51.550;12.138;2024-01-30T08:58:51;5.62;;;2.83;;
12181;SDS011;6154;51.550;12.138;2024-01-30T09:01:19;6.47;;;2.80;;
12181;SDS011;6154;51.550;12.138;2024-01-30T09:03:47;4.00;;;2.53;;
12181;SDS011;6154;51.550;12.138;2024-01-30T09:06:15;4.82;;;2.58;;
12181;SDS011;6154;51.550;12.138;2024-01-30T09:08:43;2.58;;;1.80;;
12181;SDS011;6154;51.550;12.138;2024-01-30T09:11:11;3.42;;;2.30;;
12181;SDS011;6154;51.550;12.138;2024-01-30T09:13:41;3.62;;;1.95;;
12181;SDS011;6154;51.550;12.138;2024-01-30T09:16:10;4.05;;;2.25;;
12181;SDS011;6154;51.550;12.138;2024-01-30T09:18:38;3.95;;;1.95;;
12181;SDS011;6154;51.550;12.138;2024-01-30T09:21:06;2.87;;;1.85;;
12181;SDS011;6154;51.550;12.138;2024-01-30T09:23:34;5.40;;;2.42;;
12181;SDS011;6154;51.550;12.138;2024-01-30T09:26:02;2.40;;;2.17;;
12181;SDS011;6154;51.550;12.138;2024-01-30T09:28:30;2.78;;;2.30;;
12181;SDS011;6154;51.550;12.138;2024-01-30T09:30:59;6.00;;;2.15;;
12181;SDS011;6154;51.550;12.138;2024-01-30T09:33:27;5.03;;;1.98;;
12181;SDS011;6154;51.550;12.138;2024-01-30T09:35:55;2.75;;;1.98;;
12181;SDS011;6154;51.550;12.138;2024-01-30T09:38:23;3.75;;;2.30;;
12181;SDS011;6154;51.550;12.138;2024-01-30T09:40:54;2.90;;;1.90;;
12181;SDS011;6154;51.550;12.138;2024-01-30T09:43:23;2.85;;;1.73;;
12181;SDS011;6154;51.550;12.138;2024-01-30T09:45:53;3.97;;;1.85;;
12181;SDS011;6154;51.550;12.138;2024-01-30T09:48:25;3.25;;;2.03;;
12181;SDS011;6154;51.550;12.138;2024-01-30T09:50:54;3.65;;;2.12;;
12181;SDS011;6154;51.550;12.138;2024-01-30T09:53:24;3.12;;;1.73;;
12181;SDS011;6154;51.550;12.138;2024-01-30T09:55:53;6.97;;;2.58;;
12181;SDS011;6154;51.550;12.138;2024-01-30T09:58:21;4.03;;;2.28;;
12181;SDS011;6154;51.550;12.138;2024-01-30T10:00:49;3.75;;;2.50;;
12181;SDS011;6154;51.550;12.138;2024-01-30T10:03:17;4.55;;;2.03;;
12181;SDS011;6154;51.550;12.138;2024-01-30T10:05:47;3.78;;;2.12;;
12181;SDS011;6154;51.550;12.138;2024-01-30T10:08:19;2.67;;;2.15;;
12181;SDS011;6154;51.550;12.138;2024-01-30T10:10:47;4.20;;;2.28;;
12181;SDS011;6154;51.550;12.138;2024-01-30T10:13:16;5.55;;;2.53;;
12181;SDS011;6154;51.550;12.138;2024-01-30T10:15:47;4.25;;;2.37;;
12181;SDS011;6154;51.550;12.138;2024-01-30T10:18:17;3.45;;;2.10;;
12181;SDS011;6154;51.550;12.138;2024-01-30T10:20:45;5.65;;;2.40;;
12181;SDS011;6154;51.550;12.138;2024-01-30T10:23:15;2.80;;;2.37;;
12181;SDS011;6154;51.550;12.138;2024-01-30T10:25:43;4.62;;;2.28;;
12181;SDS011;6154;51.550;12.138;2024-01-30T10:28:11;3.37;;;2.47;;
12181;SDS011;6154;51.550;12.138;2024-01-30T10:30:39;5.15;;;2.70;;
12181;SDS011;6154;51.550;12.138;2024-01-30T10:33:07;2.40;;;1.77;;
12181;SDS011;6154;51.550;12.138;2024-01-30T10:35:35;2.90;;;2.08;;
12181;SDS011;6154;51.550;12.138;2024-01-30T10:38:04;4.57;;;2.28;;
12181;SDS011;6154;51.550;12.138;2024-01-30T10:40:38;7.65;;;2.55;;
12181;SDS011;6154;51.550;12.138;2024-01-30T10:43:06;2.60;;;2.28;;
12181;SDS011;6154;51.550;12.138;2024-01-30T10:45:38;2.47;;;2.08;;
12181;SDS011;6154;51.550;12.138;2024-01-30T10:48:11;2.80;;;1.90;;
12181;SDS011;6154;51.550;12.138;2024-01-30T10:50:41;4.57;;;2.17;;
12181;SDS011;6154;51.550;12.138;2024-01-30T10:53:19;5.03;;;2.50;;
12181;SDS011;6154;51.550;12.138;2024-01-30T10:55:50;3.83;;;2.33;;
12181;SDS011;6154;51.550;12.138;2024-01-30T10:58:19;4.50;;;2.17;;
12181;SDS011;6154;51.550;12.138;2024-01-30T11:00:48;3.80;;;2.47;;
12181;SDS011;6154;51.550;12.138;2024-01-30T11:03:18;3.62;;;2.40;;
12181;SDS011;6154;51.550;12.138;2024-01-30T11:05:48;5.43;;;2.58;;
12181;SDS011;6154;51.550;12.138;2024-01-30T11:08:22;6.87;;;2.65;;
12181;SDS011;6154;51.550;12.138;2024-01-30T11:10:55;3.40;;;2.47;;
12181;SDS011;6154;51.550;12.138;2024-01-30T11:13:26;8.48;;;2.75;;
12181;SDS011;6154;51.550;12.138;2024-01-30T11:15:55;3.50;;;2.22;;
12181;SDS011;6154;51.550;12.138;2024-01-30T11:18:28;5.43;;;2.53;;
12181;SDS011;6154;51.550;12.138;2024-01-30T11:20:57;5.50;;;2.55;;
12181;SDS011;6154;51.550;12.138;2024-01-30T11:23:28;3.30;;;2.28;;
12181;SDS011;6154;51.550;12.138;2024-01-30T11:25:58;5.10;;;2.12;;
12181;SDS011;6154;51.550;12.138;2024-01-30T11:28:26;8.10;;;2.78;;
12181;SDS011;6154;51.550;12.138;2024-01-30T11:31:03;7.43;;;2.67;;
12181;SDS011;6154;51.550;12.138;2024-01-30T11:33:32;3.67;;;2.50;;
12181;SDS011;6154;51.550;12.138;2024-01-30T11:36:01;4.15;;;2.58;;
12181;SDS011;6154;51.550;12.138;2024-01-30T11:38:29;7.18;;;2.37;;
12181;SDS011;6154;51.550;12.138;2024-01-30T11:40:58;4.07;;;2.95;;
12181;SDS011;6154;51.550;12.138;2024-01-30T11:43:28;4.68;;;2.90;;
12181;SDS011;6154;51.550;12.138;2024-01-30T11:45:56;5.15;;;3.25;;
12181;SDS011;6154;51.550;12.138;2024-01-30T11:48:24;3.47;;;2.85;;
12181;SDS011;6154;51.550;12.138;2024-01-30T11:50:54;3.58;;;2.50;;
12181;SDS011;6154;51.550;12.138;2024-01-30T11:53:22;7.55;;;3.08;;
12181;SDS011;6154;51.550;12.138;2024-01-30T11:55:50;3.47;;;2.55;;
12181;SDS011;6154;51.550;12.138;2024-01-30T11:58:19;6.68;;;3.45;;
12181;SDS011;6154;51.550;12.138;2024-01-30T12:00:54;5.35;;;2.58;;
12181;SDS011;6154;51.550;12.138;2024-01-30T12:03:23;5.20;;;2.75;;
12181;SDS011;6154;51.550;12.138;2024-01-30T12:05:55;4.00;;;2.75;;
12181;SDS011;6154;51.550;12.138;2024-01-30T12:08:25;4.05;;;2.37;;
12181;SDS011;6154;51.550;12.138;2024-01-30T12:10:56;4.03;;;3.00;;
12181;SDS011;6154;51.550;12.138;2024-01-30T12:13:29;3.87;;;2.67;;
12181;SDS011;6154;51.550;12.138;2024-01-30T12:15:59;4.37;;;2.97;;
12181;SDS011;6154;51.550;12.138;2024-01-30T12:18:28;3.78;;;2.40;;
12181;SDS011;6154;51.550;12.138;2024-01-30T12:20:57;5.12;;;2.70;;
12181;SDS011;6154;51.550;12.138;2024-01-30T12:23:26;3.67;;;2.28;;
12181;SDS011;6154;51.550;12.138;2024-01-30T12:25:55;4.72;;;2.65;;
12181;SDS011;6154;51.550;12.138;2024-01-30T12:28:23;4.22;;;2.30;;
12181;SDS011;6154;51.550;12.138;2024-01-30T12:30:55;3.67;;;2.37;;
12181;SDS011;6154;51.550;12.138;2024-01-30T12:33:26;4.65;;;2.45;;
12181;SDS011;6154;51.550;12.138;2024-01-30T12:35:54;3.20;;;2.55;;
12181;SDS011;6154;51.550;12.138;2024-01-30T12:38:29;6.57;;;2.80;;
12181;SDS011;6154;51.550;12.138;2024-01-30T12:40:57;3.45;;;2.40;;
12181;SDS011;6154;51.550;12.138;2024-01-30T12:43:25;6.28;;;2.78;;
12181;SDS011;6154;51.550;12.138;2024-01-30T12:46:06;3.00;;;2.47;;
12181;SDS011;6154;51.550;12.138;2024-01-30T12:48:34;4.20;;;2.72;;
12181;SDS011;6154;51.550;12.138;2024-01-30T12:51:03;3.85;;;2.60;;
12181;SDS011;6154;51.550;12.138;2024-01-30T12:53:31;2.85;;;2.15;;
12181;SDS011;6154;51.550;12.138;2024-01-30T12:55:59;3.67;;;2.33;;
12181;SDS011;6154;51.550;12.138;2024-01-30T12:58:27;5.75;;;2.80;;
12181;SDS011;6154;51.550;12.138;2024-01-30T13:00:55;4.15;;;2.83;;
12181;SDS011;6154;51.550;12.138;2024-01-30T13:03:25;5.85;;;2.85;;
12181;SDS011;6154;51.550;12.138;2024-01-30T13:05:54;5.87;;;2.60;;
12181;SDS011;6154;51.550;12.138;2024-01-30T13:08:22;4.07;;;2.80;;
12181;SDS011;6154;51.550;12.138;2024-01-30T13:10:50;3.28;;;2.47;;
12181;SDS011;6154;51.550;12.138;2024-01-30T13:13:19;4.85;;;2.50;;
12181;SDS011;6154;51.550;12.138;2024-01-30T13:15:48;3.83;;;2.40;;
12181;SDS011;6154;51.550;12.138;2024-01-30T13:18:16;2.70;;;2.40;;
12181;SDS011;6154;51.550;12.138;2024-01-30T13:20:46;5.40;;;2.30;;
12181;SDS011;6154;51.550;12.138;2024-01-30T13:23:14;2.97;;;2.50;;
12181;SDS011;6154;51.550;12.138;2024-01-30T13:25:42;3.83;;;2.50;;
12181;SDS011;6154;51.550;12.138;2024-01-30T13:28:10;3.42;;;2.30;;
12181;SDS011;6154;51.550;12.138;2024-01-30T13:30:38;3.58;;;2.53;;
12181;SDS011;6154;51.550;12.138;2024-01-30T13:33:06;8.02;;;2.97;;
12181;SDS011;6154;51.550;12.138;2024-01-30T13:35:34;5.97;;;2.45;;
12181;SDS011;6154;51.550;12.138;2024-01-30T13:38:04;3.92;;;2.53;;
12181;SDS011;6154;51.550;12.138;2024-01-30T13:40:32;3.03;;;2.22;;
12181;SDS011;6154;51.550;12.138;2024-01-30T13:43:00;3.70;;;2.28;;
12181;SDS011;6154;51.550;12.138;2024-01-30T13:45:28;4.25;;;2.50;;
12181;SDS011;6154;51.550;12.138;2024-01-30T13:47:56;3.47;;;2.25;;
12181;SDS011;6154;51.550;12.138;2024-01-30T13:50:24;4.72;;;2.50;;
12181;SDS011;6154;51.550;12.138;2024-01-30T13:52:53;5.87;;;2.65;;
12181;SDS011;6154;51.550;12.138;2024-01-30T13:55:22;4.30;;;2.30;;
12181;SDS011;6154;51.550;12.138;2024-01-30T13:57:50;4.28;;;2.30;;
12181;SDS011;6154;51.550;12.138;2024-01-30T14:00:19;4.28;;;2.55;;
12181;SDS011;6154;51.550;12.138;2024-01-30T14:02:49;4.72;;;2.30;;
12181;SDS011;6154;51.550;12.138;2024-01-30T14:05:17;4.30;;;2.42;;
12181;SDS011;6154;51.550;12.138;2024-01-30T14:07:47;3.50;;;2.65;;
12181;SDS011;6154;51.550;12.138;2024-01-30T14:10:16;4.47;;;2.55;;
12181;SDS011;6154;51.550;12.138;2024-01-30T14:12:46;2.72;;;2.42;;
12181;SDS011;6154;51.550;12.138;2024-01-30T14:15:14;3.30;;;2.30;;
12181;SDS011;6154;51.550;12.138;2024-01-30T14:17:54;7.53;;;2.78;;
12181;SDS011;6154;51.550;12.138;2024-01-30T14:20:23;2.62;;;2.30;;
12181;SDS011;6154;51.550;12.138;2024-01-30T14:22:51;3.90;;;2.10;;
12181;SDS011;6154;51.550;12.138;2024-01-30T14:25:20;2.17;;;1.98;;
12181;SDS011;6154;51.550;12.138;2024-01-30T14:27:49;4.10;;;2.92;;
12181;SDS011;6154;51.550;12.138;2024-01-30T14:30:18;4.32;;;2.60;;
12181;SDS011;6154;51.550;12.138;2024-01-30T14:32:46;5.25;;;2.60;;
12181;SDS011;6154;51.550;12.138;2024-01-30T14:35:15;3.62;;;2.47;;
12181;SDS011;6154;51.550;12.138;2024-01-30T14:37:43;3.05;;;2.10;;
12181;SDS011;6154;51.550;12.138;2024-01-30T14:40:12;3.85;;;2.50;;
12181;SDS011;6154;51.550;12.138;2024-01-30T14:42:40;4.85;;;2.72;;
12181;SDS011;6154;51.550;12.138;2024-01-30T14:45:09;5.12;;;2.05;;
12181;SDS011;6154;51.550;12.138;2024-01-30T14:47:38;3.80;;;2.45;;
12181;SDS011;6154;51.550;12.138;2024-01-30T14:50:07;5.57;;;2.75;;
12181;SDS011;6154;51.550;12.138;2024-01-30T14:52:36;4.32;;;2.53;;
12181;SDS011;6154;51.550;12.138;2024-01-30T14:55:07;6.87;;;3.33;;
12181;SDS011;6154;51.550;12.138;2024-01-30T14:57:35;6.28;;;2.78;;
12181;SDS011;6154;51.550;12.138;2024-01-30T15:00:05;4.68;;;2.62;;